Time;durP1;ratioP1;P1;durP2;ratioP2;P2;SDS_P1;SDS_P2;PMS_P1;PMS_P2;Temp;Humidity;BMP_temperature;BMP_pressure;BME280_temperature;BME280_humidity;BME280_pressure;Samples;Min_cycle;Max_cycle;Signal;HPM_P1;HPM_P2
2020/12/01 00:01:04;;;;;;;32.97;13.73;;;-0.50;99.90;;;;;;5133384;27;20454;-56
2020/12/01 00:03:30;;;;;;;24.53;12.17;;;-0.40;99.90;;;;;;5133293;27;20446;-55
2020/12/01 00:05:57;;;;;;;27.53;12.53;;;-0.30;99.90;;;;;;5126591;27;20448;-56
2020/12/01 00:08:24;;;;;;;25.30;11.53;;;-0.50;99.90;;;;;;5119574;27;20471;-56
2020/12/01 00:10:50;;;;;;;30.70;12.23;;;-0.40;99.90;;;;;;5114283;28;20806;-55
2020/12/01 00:13:17;;;;;;;22.40;11.17;;;-0.50;99.90;;;;;;5127203;27;20992;-56
2020/12/01 00:15:43;;;;;;;24.00;11.43;;;-0.60;99.90;;;;;;5129418;27;20956;-55
2020/12/01 00:18:10;;;;;;;24.90;11.07;;;-0.70;99.90;;;;;;5129318;27;20467;-56
2020/12/01 00:20:37;;;;;;;20.83;10.20;;;-0.50;99.90;;;;;;5120108;27;20503;-55
2020/12/01 00:23:03;;;;;;;23.97;10.97;;;-0.40;99.90;;;;;;5132858;27;20877;-56
2020/12/01 00:25:30;;;;;;;24.10;10.73;;;-0.30;99.90;;;;;;5133658;27;21066;-56
2020/12/01 00:27:56;;;;;;;26.57;11.70;;;-0.30;99.90;;;;;;5133637;27;20498;-56
2020/12/01 00:30:25;;;;;;;20.40;9.77;;;-0.30;99.90;;;;;;5132223;27;20453;-55
2020/12/01 00:32:52;;;;;;;24.07;11.73;;;-0.40;99.90;;;;;;5118905;27;20455;-55
2020/12/01 00:35:23;;;;;;;22.90;10.87;;;-0.30;99.90;;;;;;5126935;27;20455;-55
2020/12/01 00:37:50;;;;;;;25.47;12.50;;;-0.20;99.90;;;;;;5133253;27;20451;-56
2020/12/01 00:40:17;;;;;;;26.37;11.27;;;-0.30;99.90;;;;;;5130969;27;20504;-55
2020/12/01 00:42:43;;;;;;;26.03;11.63;;;-0.20;99.90;;;;;;5113960;28;20438;-56
2020/12/01 00:45:11;;;;;;;22.47;11.00;;;-0.20;99.90;;;;;;5117017;27;20488;-55
2020/12/01 00:47:37;;;;;;;22.43;11.10;;;-0.20;99.90;;;;;;5124464;27;20455;-56
2020/12/01 00:50:06;;;;;;;22.13;10.70;;;-0.10;99.90;;;;;;5131493;27;20500;-55
2020/12/01 00:52:33;;;;;;;23.60;11.97;;;-0.20;99.90;;;;;;5113668;28;20496;-55
2020/12/01 00:55:00;;;;;;;21.80;10.53;;;-0.30;99.90;;;;;;5120216;27;20553;-55
2020/12/01 00:57:26;;;;;;;22.13;11.40;;;-0.20;99.90;;;;;;5134047;27;20511;-55
2020/12/01 00:59:53;;;;;;;24.80;11.67;;;-0.10;99.90;;;;;;5133685;27;20530;-56
2020/12/01 01:02:19;;;;;;;20.87;10.53;;;-0.10;99.90;;;;;;5114955;27;20504;-56
2020/12/01 01:04:46;;;;;;;24.13;11.67;;;0.00;99.90;;;;;;5114536;27;20488;-56
2020/12/01 01:07:12;;;;;;;26.77;11.77;;;-0.10;99.90;;;;;;5113445;28;20454;-56
2020/12/01 01:09:40;;;;;;;28.10;11.97;;;-0.20;99.90;;;;;;5116242;27;20510;-56
2020/12/01 01:12:06;;;;;;;26.63;11.93;;;-0.30;99.90;;;;;;5132921;27;20455;-56
2020/12/01 01:14:33;;;;;;;24.13;10.80;;;-0.40;99.90;;;;;;5125718;27;20516;-56
2020/12/01 01:16:59;;;;;;;26.30;10.73;;;-0.30;99.90;;;;;;5134011;27;20447;-56
2020/12/01 01:19:26;;;;;;;23.50;10.90;;;-0.20;99.90;;;;;;5119583;27;20553;-56
2020/12/01 01:21:52;;;;;;;22.83;11.13;;;-0.20;99.90;;;;;;5117955;27;20456;-55
2020/12/01 01:24:19;;;;;;;23.20;11.47;;;-0.10;99.90;;;;;;5113505;27;20906;-55
2020/12/01 01:26:51;;;;;;;22.60;10.47;;;-0.10;99.90;;;;;;5116960;27;20492;-56
2020/12/01 01:29:18;;;;;;;21.53;11.17;;;-0.10;99.90;;;;;;5133472;27;20530;-56
2020/12/01 01:31:45;;;;;;;26.27;12.60;;;-0.20;99.90;;;;;;5129649;27;20524;-56
2020/12/01 01:34:12;;;;;;;30.10;12.43;;;-0.30;99.90;;;;;;5120536;27;20861;-56
2020/12/01 01:36:39;;;;;;;23.90;11.70;;;-0.40;99.90;;;;;;5126022;27;20447;-55
2020/12/01 01:39:07;;;;;;;26.00;11.70;;;-0.60;99.90;;;;;;5124513;27;20466;-56
2020/12/01 01:41:36;;;;;;;28.70;13.40;;;-0.50;99.90;;;;;;5131641;27;20869;-56
2020/12/01 01:44:15;;;;;;;27.40;14.47;;;-0.30;99.90;;;;;;5125624;27;20490;-55
2020/12/01 01:46:43;;;;;;;30.80;14.97;;;-0.30;99.90;;;;;;5133009;27;20872;-55
2020/12/01 01:49:14;;;;;;;28.10;14.27;;;-0.20;99.90;;;;;;5130747;27;20475;-55
2020/12/01 01:51:46;;;;;;;31.47;14.37;;;-0.20;99.90;;;;;;5116456;27;20508;-56
2020/12/01 01:54:14;;;;;;;37.00;15.23;;;-0.10;99.90;;;;;;5132578;27;20853;-55
2020/12/01 01:56:44;;;;;;;26.63;13.50;;;-0.20;99.90;;;;;;5129007;27;21003;-55
2020/12/01 01:59:14;;;;;;;29.70;14.73;;;-0.20;99.90;;;;;;5112222;27;20471;-55
2020/12/01 02:01:41;;;;;;;27.77;14.13;;;-0.30;99.90;;;;;;5112270;27;20451;-55
2020/12/01 02:04:10;;;;;;;24.07;12.20;;;-0.50;99.90;;;;;;5129231;27;20504;-55
2020/12/01 02:06:40;;;;;;;25.83;12.13;;;-0.60;99.90;;;;;;5118171;27;20442;-54
2020/12/01 02:09:10;;;;;;;21.13;11.40;;;-0.60;99.90;;;;;;5112088;27;20886;-55
2020/12/01 02:11:38;;;;;;;21.50;10.90;;;-0.50;99.90;;;;;;5117600;27;20456;-55
2020/12/01 02:14:07;;;;;;;24.63;11.40;;;-0.60;99.90;;;;;;5132231;27;20442;-54
2020/12/01 02:16:36;;;;;;;26.97;12.43;;;-0.60;99.90;;;;;;5130656;27;20872;-55
2020/12/01 02:19:03;;;;;;;22.40;11.03;;;-0.60;99.90;;;;;;5112754;27;20470;-55
2020/12/01 02:21:34;;;;;;;23.90;11.83;;;-0.60;99.90;;;;;;5113247;27;20449;-55
2020/12/01 02:24:03;;;;;;;25.17;11.17;;;-0.60;99.90;;;;;;5132581;27;21004;-55
2020/12/01 02:26:31;;;;;;;23.57;11.30;;;-0.50;99.90;;;;;;5113768;27;20442;-55
2020/12/01 02:29:00;;;;;;;25.63;11.20;;;-0.40;99.90;;;;;;5131968;27;20594;-55
2020/12/01 02:31:27;;;;;;;25.07;11.63;;;-0.30;99.90;;;;;;5127162;27;20471;-55
2020/12/01 02:33:56;;;;;;;24.77;11.77;;;-0.20;99.90;;;;;;5128633;27;20450;-55
2020/12/01 02:36:23;;;;;;;24.13;11.70;;;-0.20;99.90;;;;;;5131589;27;20445;-54
2020/12/01 02:38:49;;;;;;;24.10;10.50;;;-0.20;99.90;;;;;;5130405;27;20514;-55
2020/12/01 02:41:16;;;;;;;20.17;10.40;;;0.00;99.90;;;;;;5131852;27;20476;-55
2020/12/01 02:43:43;;;;;;;26.67;11.03;;;0.00;99.90;;;;;;5111792;27;20447;-55
2020/12/01 02:46:09;;;;;;;23.80;10.70;;;0.00;99.90;;;;;;5118931;27;20458;-55
2020/12/01 02:48:36;;;;;;;23.20;11.03;;;0.00;99.90;;;;;;5130092;27;20535;-55
2020/12/01 02:51:02;;;;;;;27.60;11.80;;;-0.10;99.90;;;;;;5115619;27;20500;-55
2020/12/01 02:53:29;;;;;;;26.40;12.50;;;-0.10;99.90;;;;;;5121094;27;20499;-55
2020/12/01 02:55:55;;;;;;;29.87;12.20;;;-0.10;99.90;;;;;;5131821;27;20442;-55
2020/12/01 02:58:22;;;;;;;24.63;11.17;;;-0.20;99.90;;;;;;5130930;27;21023;-55
2020/12/01 03:00:49;;;;;;;24.60;11.67;;;-0.20;99.90;;;;;;5121268;27;20866;-55
2020/12/01 03:03:15;;;;;;;24.40;11.63;;;-0.10;99.90;;;;;;5127244;27;20501;-55
2020/12/01 03:05:42;;;;;;;25.03;11.30;;;-0.10;99.90;;;;;;5130365;27;20533;-55
2020/12/01 03:08:08;;;;;;;21.93;10.90;;;-0.10;99.90;;;;;;5131349;27;20522;-55
2020/12/01 03:10:35;;;;;;;24.33;11.33;;;-0.10;99.90;;;;;;5131518;27;20444;-55
2020/12/01 03:13:01;;;;;;;24.43;12.10;;;-0.10;99.90;;;;;;5129502;27;20482;-55
2020/12/01 03:15:28;;;;;;;25.57;12.43;;;-0.10;99.90;;;;;;5130766;27;20827;-55
2020/12/01 03:17:56;;;;;;;23.17;11.67;;;0.00;99.90;;;;;;5129688;28;20453;-55
2020/12/01 03:20:22;;;;;;;22.47;11.03;;;0.10;99.90;;;;;;5113852;28;21025;-55
2020/12/01 03:22:49;;;;;;;25.30;11.60;;;0.10;99.90;;;;;;5111002;28;20929;-55
2020/12/01 03:25:15;;;;;;;23.53;11.30;;;0.10;99.90;;;;;;5110938;28;20499;-55
2020/12/01 03:27:42;;;;;;;23.50;10.93;;;0.10;99.90;;;;;;5111904;28;20500;-55
2020/12/01 03:30:08;;;;;;;24.97;11.73;;;0.10;99.90;;;;;;5113372;28;20448;-55
2020/12/01 03:32:35;;;;;;;25.73;11.90;;;0.20;99.90;;;;;;5116344;27;20503;-54
2020/12/01 03:35:03;;;;;;;24.60;11.03;;;0.30;99.90;;;;;;5124433;27;20463;-55
2020/12/01 03:37:29;;;;;;;23.27;11.13;;;0.30;99.90;;;;;;5128270;28;20466;-55
2020/12/01 03:39:56;;;;;;;22.67;10.13;;;0.40;99.90;;;;;;5129941;27;20533;-55
2020/12/01 03:42:22;;;;;;;24.67;11.63;;;0.70;99.90;;;;;;5126492;28;20864;-55
2020/12/01 03:44:49;;;;;;;20.97;10.90;;;0.80;99.90;;;;;;5128065;28;20991;-55
2020/12/01 03:47:15;;;;;;;22.90;11.10;;;0.50;99.90;;;;;;5127394;27;20844;-55
2020/12/01 03:49:42;;;;;;;23.90;11.40;;;0.50;99.90;;;;;;5129582;28;21009;-55
2020/12/01 03:52:09;;;;;;;21.57;10.30;;;0.50;99.90;;;;;;5130899;27;20480;-54
2020/12/01 03:54:35;;;;;;;19.57;10.50;;;0.20;99.90;;;;;;5130858;27;20853;-55
2020/12/01 03:57:02;;;;;;;24.10;10.77;;;0.30;99.90;;;;;;5130736;27;20442;-55
2020/12/01 03:59:28;;;;;;;21.13;10.20;;;0.30;99.90;;;;;;5130407;27;20894;-55
2020/12/01 04:01:55;;;;;;;24.30;11.20;;;0.10;99.90;;;;;;5136652;27;20449;-54
2020/12/01 04:04:21;;;;;;;23.07;9.83;;;-0.10;99.90;;;;;;5131288;27;20472;-54
2020/12/01 04:06:48;;;;;;;21.60;9.80;;;0.00;99.90;;;;;;5130656;28;20495;-55
2020/12/01 04:09:15;;;;;;;22.83;10.20;;;0.10;99.90;;;;;;5130334;28;20466;-55
2020/12/01 04:11:42;;;;;;;21.43;9.60;;;0.00;99.90;;;;;;5130429;28;20869;-55
2020/12/01 04:14:08;;;;;;;21.77;10.40;;;-0.20;99.90;;;;;;5126601;27;21104;-54
2020/12/01 04:16:35;;;;;;;25.90;10.10;;;-0.20;99.90;;;;;;5131959;27;20499;-54
2020/12/01 04:19:02;;;;;;;19.33;9.47;;;-0.20;99.90;;;;;;5134259;27;20539;-55
2020/12/01 04:21:28;;;;;;;23.90;10.13;;;0.00;99.90;;;;;;5134590;27;20515;-55
2020/12/01 04:23:58;;;;;;;23.20;11.20;;;0.20;99.90;;;;;;5134325;27;20444;-54
2020/12/01 04:26:25;;;;;;;20.80;10.40;;;0.00;99.90;;;;;;5134225;27;20465;-55
2020/12/01 04:28:52;;;;;;;21.67;10.67;;;0.20;99.90;;;;;;5134063;27;20453;-55
2020/12/01 04:31:18;;;;;;;21.93;10.60;;;0.20;99.90;;;;;;5130416;27;20442;-55
2020/12/01 04:33:45;;;;;;;18.73;9.43;;;0.10;99.90;;;;;;5134112;27;20446;-55
2020/12/01 04:36:12;;;;;;;19.40;9.60;;;0.10;99.90;;;;;;5134098;27;20795;-55
2020/12/01 04:38:39;;;;;;;22.70;9.57;;;0.00;99.90;;;;;;5130974;27;20464;-54
2020/12/01 04:41:06;;;;;;;19.27;10.20;;;0.10;99.90;;;;;;5133882;27;20493;-55
2020/12/01 04:43:37;;;;;;;20.60;10.20;;;0.10;99.90;;;;;;5134081;27;20435;-55
2020/12/01 04:46:06;;;;;;;18.30;9.70;;;0.10;99.90;;;;;;5132896;27;20542;-55
2020/12/01 04:48:41;;;;;;;22.20;10.40;;;0.10;99.90;;;;;;5133619;27;20877;-55
2020/12/01 04:51:26;;;;;;;23.80;11.10;;;0.20;99.90;;;;;;5133667;27;20433;-55
2020/12/01 04:54:21;;;;;;;21.20;10.30;;;0.20;99.90;;;;;;5119409;27;20517;-55
2020/12/01 04:57:16;;;;;;;22.17;9.23;;;0.20;99.90;;;;;;5133785;27;20439;-54
2020/12/01 05:00:05;;;;;;;23.67;10.53;;;0.50;99.90;;;;;;5131294;27;20504;-55
2020/12/01 05:02:56;;;;;;;21.20;10.07;;;0.50;99.90;;;;;;5130457;27;20494;-55
2020/12/01 05:05:40;;;;;;;23.23;10.37;;;0.40;99.90;;;;;;5130123;27;20472;-55
2020/12/01 05:08:48;;;;;;;19.83;8.83;;;0.40;99.90;;;;;;5129658;27;20470;-54
2020/12/01 05:11:23;;;;;;;21.20;9.57;;;0.30;99.90;;;;;;5044412;28;20875;-54
2020/12/01 05:14:01;;;;;;;20.53;9.33;;;0.30;99.90;;;;;;5049403;28;20452;-55
2020/12/01 05:16:45;;;;;;;17.63;9.33;;;0.40;99.90;;;;;;5099729;27;20432;-55
2020/12/01 05:19:33;;;;;;;20.70;9.43;;;0.30;99.90;;;;;;5130076;27;20820;-54
2020/12/01 05:21:59;;;;;;;17.97;8.73;;;0.40;99.90;;;;;;5124187;27;20454;-54
2020/12/01 05:24:36;;;;;;;20.40;10.27;;;0.50;99.90;;;;;;5132956;27;21054;-54
2020/12/01 05:27:03;;;;;;;21.33;9.73;;;0.70;99.90;;;;;;5128057;27;20434;-55
2020/12/01 05:29:29;;;;;;;22.90;10.30;;;0.60;99.90;;;;;;5132255;27;20458;-55
2020/12/01 05:31:57;;;;;;;19.10;9.90;;;0.50;99.90;;;;;;5132838;27;20446;-54
2020/12/01 05:34:24;;;;;;;21.83;10.50;;;0.50;99.90;;;;;;5132955;27;20461;-55
2020/12/01 05:36:53;;;;;;;23.00;10.60;;;0.40;99.90;;;;;;5133001;27;20443;-55
2020/12/01 05:39:22;;;;;;;23.47;10.70;;;0.50;99.90;;;;;;5130098;27;20542;-55
2020/12/01 05:42:01;;;;;;;20.43;9.50;;;0.60;99.90;;;;;;5126273;27;20871;-55
2020/12/01 05:44:29;;;;;;;20.13;9.40;;;0.60;99.90;;;;;;5132479;27;20485;-55
2020/12/01 05:47:03;;;;;;;20.20;9.30;;;0.40;99.90;;;;;;5132660;27;20443;-55
2020/12/01 05:49:39;;;;;;;22.93;10.90;;;0.40;99.90;;;;;;5131927;27;20457;-54
2020/12/01 05:52:15;;;;;;;22.00;10.47;;;0.50;99.90;;;;;;5130060;27;20446;-54
2020/12/01 05:54:43;;;;;;;22.20;10.80;;;0.50;99.90;;;;;;5131651;27;20435;-54
2020/12/01 05:57:18;;;;;;;26.17;11.63;;;0.40;99.90;;;;;;5128214;27;20455;-55
2020/12/01 05:59:56;;;;;;;26.07;12.70;;;0.40;99.90;;;;;;5125951;27;20465;-54
2020/12/01 06:02:34;;;;;;;25.63;11.30;;;0.40;99.90;;;;;;5129453;27;20443;-54
2020/12/01 06:05:02;;;;;;;26.97;12.30;;;0.40;99.90;;;;;;5129637;27;20896;-54
2020/12/01 06:07:30;;;;;;;26.57;11.80;;;0.50;99.90;;;;;;5127514;27;20860;-54
2020/12/01 06:10:33;;;;;;;26.00;12.60;;;0.40;99.90;;;;;;5125900;27;20512;-54
2020/12/01 06:13:15;;;;;;;18.67;10.03;;;0.30;99.90;;;;;;5113244;27;20549;-54
2020/12/01 06:16:01;;;;;;;21.27;10.87;;;0.40;99.90;;;;;;5128303;27;20427;-55
2020/12/01 06:18:43;;;;;;;15.67;8.50;;;0.60;99.90;;;;;;5129765;27;20457;-54
2020/12/01 06:21:10;;;;;;;14.97;8.20;;;0.70;99.90;;;;;;5130833;27;20924;-54
2020/12/01 06:24:13;;;;;;;17.63;8.70;;;0.80;99.90;;;;;;5131100;27;20428;-54
2020/12/01 06:27:05;;;;;;;20.93;8.73;;;0.70;99.90;;;;;;5128782;27;20491;-54
2020/12/01 06:30:17;;;;;;;17.57;8.90;;;0.80;99.90;;;;;;5130702;27;20508;-54
2020/12/01 06:33:19;;;;;;;17.20;8.80;;;1.10;99.90;;;;;;5121462;27;20503;-54
2020/12/01 06:36:35;;;;;;;17.50;8.87;;;1.10;99.90;;;;;;5122978;27;20442;-54
2020/12/01 06:39:11;;;;;;;17.30;8.60;;;1.00;99.90;;;;;;5122904;27;20462;-55
2020/12/01 06:41:43;;;;;;;20.30;9.60;;;0.80;99.90;;;;;;5125644;27;20442;-54
2020/12/01 06:44:16;;;;;;;22.00;9.77;;;0.60;99.90;;;;;;5125184;27;20450;-54
2020/12/01 06:46:46;;;;;;;20.53;10.47;;;0.60;99.90;;;;;;5127105;27;20437;-54
2020/12/01 06:49:17;;;;;;;19.57;9.70;;;0.50;99.90;;;;;;5128255;27;20454;-54
2020/12/01 06:51:48;;;;;;;19.77;9.87;;;0.50;99.90;;;;;;5126544;27;20435;-54
2020/12/01 06:54:16;;;;;;;23.70;10.23;;;0.40;99.90;;;;;;5130465;27;20434;-54
2020/12/01 06:56:55;;;;;;;20.37;9.97;;;0.40;99.90;;;;;;5129262;27;20461;-54
2020/12/01 06:59:21;;;;;;;20.60;9.77;;;0.20;99.90;;;;;;5125208;27;20511;-54
2020/12/01 07:01:48;;;;;;;17.43;9.67;;;0.30;99.90;;;;;;5130318;27;20927;-54
2020/12/01 07:04:29;;;;;;;21.37;11.40;;;0.30;99.90;;;;;;5125830;27;20821;-54
2020/12/01 07:06:59;;;;;;;22.30;10.67;;;0.30;99.90;;;;;;5124961;27;21012;-54
2020/12/01 07:09:28;;;;;;;18.90;10.40;;;0.40;99.90;;;;;;5130205;27;20870;-54
2020/12/01 07:12:29;;;;;;;22.73;11.47;;;0.40;99.90;;;;;;5128385;27;20900;-54
2020/12/01 07:15:00;;;;;;;26.73;12.50;;;0.40;99.90;;;;;;5111109;28;20431;-55
2020/12/01 07:17:39;;;;;;;19.43;9.83;;;0.40;99.90;;;;;;5111350;28;20441;-55
2020/12/01 07:20:32;;;;;;;24.67;11.10;;;0.40;99.90;;;;;;5110883;28;20928;-54
2020/12/01 07:23:09;;;;;;;21.70;10.23;;;0.40;99.90;;;;;;5111172;28;20438;-55
2020/12/01 07:25:42;;;;;;;21.70;10.80;;;0.20;99.90;;;;;;5111162;28;20479;-55
2020/12/01 07:28:17;;;;;;;24.77;11.40;;;0.20;99.90;;;;;;5110909;28;20468;-55
2020/12/01 07:30:56;;;;;;;25.67;11.30;;;0.10;99.90;;;;;;5111016;28;20489;-54
2020/12/01 07:33:27;;;;;;;25.23;11.33;;;0.20;99.90;;;;;;5111024;28;20442;-55
2020/12/01 07:35:55;;;;;;;24.47;11.30;;;0.10;99.90;;;;;;5110910;28;20484;-54
2020/12/01 07:38:31;;;;;;;24.70;11.60;;;0.30;99.90;;;;;;5110809;28;20870;-54
2020/12/01 07:41:12;;;;;;;25.27;11.67;;;0.30;99.90;;;;;;5118374;28;20515;-54
2020/12/01 07:43:39;;;;;;;22.17;10.07;;;0.30;99.90;;;;;;5131358;28;20448;-54
2020/12/01 07:46:07;;;;;;;22.27;10.73;;;0.60;99.90;;;;;;5131173;28;20475;-55
2020/12/01 07:48:33;;;;;;;23.80;11.87;;;0.50;99.90;;;;;;5131677;27;20522;-55
2020/12/01 07:51:05;;;;;;;22.57;11.47;;;0.40;99.90;;;;;;5135296;27;20445;-54
2020/12/01 07:53:39;;;;;;;22.10;11.17;;;0.40;99.90;;;;;;5135601;27;20861;-55
2020/12/01 07:56:10;;;;;;;24.13;10.70;;;0.40;99.90;;;;;;5134630;27;20460;-56
2020/12/01 07:58:36;;;;;;;28.57;11.60;;;0.40;99.90;;;;;;5133753;27;20886;-55
2020/12/01 08:01:14;;;;;;;26.90;11.77;;;0.30;99.90;;;;;;5133897;27;20463;-55
2020/12/01 08:03:42;;;;;;;23.53;10.60;;;0.40;99.90;;;;;;5134139;27;20438;-55
2020/12/01 08:06:12;;;;;;;21.43;11.03;;;0.40;99.90;;;;;;5133834;27;20916;-54
2020/12/01 08:08:41;;;;;;;21.47;10.87;;;0.40;99.90;;;;;;5133488;27;20488;-54
2020/12/01 08:11:12;;;;;;;18.33;9.83;;;0.40;99.90;;;;;;5133391;27;20933;-54
2020/12/01 08:13:39;;;;;;;22.13;11.20;;;0.50;99.90;;;;;;5133844;27;20978;-54
2020/12/01 08:16:15;;;;;;;26.30;12.43;;;0.40;99.90;;;;;;5133648;27;20916;-54
2020/12/01 08:18:41;;;;;;;19.90;10.37;;;0.40;99.90;;;;;;5133574;27;20652;-54
2020/12/01 08:21:08;;;;;;;23.00;10.67;;;0.50;99.90;;;;;;5133595;27;20495;-54
2020/12/01 08:23:36;;;;;;;20.80;10.77;;;0.50;99.90;;;;;;5133335;27;20443;-54
2020/12/01 08:26:09;;;;;;;21.87;11.03;;;0.60;99.90;;;;;;5133195;27;20522;-55
2020/12/01 08:28:39;;;;;;;27.77;11.70;;;0.40;99.90;;;;;;5133239;27;20504;-54
2020/12/01 08:31:13;;;;;;;22.03;11.20;;;0.40;99.90;;;;;;5133576;27;20985;-54
2020/12/01 08:33:58;;;;;;;25.90;11.13;;;0.50;99.90;;;;;;5130094;27;20435;-54
2020/12/01 08:36:44;;;;;;;24.13;11.10;;;0.70;99.90;;;;;;5133084;27;20443;-54
2020/12/01 08:39:50;;;;;;;24.20;11.50;;;0.80;99.90;;;;;;5133003;27;20488;-54
2020/12/01 08:42:28;;;;;;;25.13;12.13;;;1.00;99.90;;;;;;5109531;27;20927;-54
2020/12/01 08:45:06;;;;;;;21.03;11.40;;;0.80;99.90;;;;;;5133091;27;20486;-54
2020/12/01 08:47:32;;;;;;;23.43;11.30;;;0.70;99.90;;;;;;5133147;27;20754;-54
2020/12/01 08:50:00;;;;;;;22.60;12.27;;;0.70;99.90;;;;;;5132772;27;20463;-54
2020/12/01 08:52:34;;;;;;;22.10;11.33;;;0.80;99.90;;;;;;5132952;27;20484;-54
2020/12/01 08:55:15;;;;;;;28.50;15.07;;;0.90;99.90;;;;;;5132772;27;20442;-54
2020/12/01 08:57:42;;;;;;;25.00;13.43;;;1.10;99.90;;;;;;5133051;27;20495;-55
2020/12/01 09:00:12;;;;;;;24.47;12.77;;;1.10;99.90;;;;;;5132867;27;20439;-54
2020/12/01 09:02:40;;;;;;;25.67;13.00;;;1.10;99.90;;;;;;5137303;27;21029;-54
2020/12/01 09:05:19;;;;;;;19.90;10.80;;;1.10;99.90;;;;;;5133648;27;20483;-55
2020/12/01 09:07:46;;;;;;;22.23;12.33;;;1.30;99.90;;;;;;5137523;27;20469;-54
2020/12/01 09:10:19;;;;;;;25.73;12.43;;;1.30;99.90;;;;;;5135903;27;20522;-54
2020/12/01 09:13:01;;;;;;;22.10;11.57;;;1.40;99.90;;;;;;5137434;27;21004;-54
2020/12/01 09:15:39;;;;;;;21.17;11.23;;;1.60;99.90;;;;;;5137142;27;20432;-55
2020/12/01 09:18:24;;;;;;;21.20;10.70;;;1.60;99.90;;;;;;5137185;27;21055;-55
2020/12/01 09:23:36;;;;;;;27.43;12.17;;;1.70;99.90;;;;;;5124032;27;20480;-54
2020/12/01 09:26:14;;;;;;;22.20;10.77;;;1.70;99.90;;;;;;5138855;27;20479;-53
2020/12/01 09:28:46;;;;;;;23.80;11.00;;;1.60;99.90;;;;;;5136865;27;20512;-54
2020/12/01 09:31:13;;;;;;;21.07;10.50;;;1.80;99.90;;;;;;5136868;27;20466;-55
2020/12/01 09:33:39;;;;;;;20.70;10.67;;;1.80;99.90;;;;;;5136790;27;20443;-54
2020/12/01 09:36:07;;;;;;;18.63;9.87;;;1.80;99.90;;;;;;5132533;27;20500;-54
2020/12/01 09:38:33;;;;;;;17.47;9.90;;;1.80;99.90;;;;;;5136299;27;20484;-54
2020/12/01 09:41:00;;;;;;;20.90;10.10;;;1.70;99.90;;;;;;5136110;27;20945;-54
2020/12/01 09:43:30;;;;;;;19.13;10.63;;;1.70;99.90;;;;;;5135350;27;20493;-54
2020/12/01 09:46:02;;;;;;;20.07;10.37;;;1.80;99.90;;;;;;5135987;27;20505;-55
2020/12/01 09:48:31;;;;;;;18.53;10.10;;;1.80;99.90;;;;;;5137403;27;20883;-55
2020/12/01 09:50:58;;;;;;;20.17;9.90;;;1.80;99.90;;;;;;5137593;27;20447;-54
2020/12/01 09:53:35;;;;;;;18.90;10.43;;;1.70;99.90;;;;;;5136979;27;20451;-54
2020/12/01 09:59:27;;;;;;;18.07;9.23;;;1.80;99.90;;;;;;5111663;28;20459;-54
2020/12/01 10:05:04;;;;;;;17.80;9.10;;;1.80;99.90;;;;;;5112165;28;20423;-54
2020/12/01 10:07:48;;;;;;;21.93;12.07;;;1.80;99.90;;;;;;5111959;28;20448;-54
2020/12/01 10:10:28;;;;;;;23.57;11.83;;;1.80;99.90;;;;;;5111698;28;21078;-54
2020/12/01 10:12:59;;;;;;;17.03;10.80;;;1.60;99.90;;;;;;5111567;28;20456;-54
2020/12/01 10:15:41;;;;;;;20.47;10.10;;;1.60;99.90;;;;;;5113119;27;20444;-54
2020/12/01 10:34:49;;;;;;;24.37;11.70;;;2.10;99.90;;;;;;5099391;27;20440;-54
2020/12/01 10:37:16;;;;;;;20.80;11.90;;;2.30;99.90;;;;;;5111562;28;20488;-54
2020/12/01 10:39:42;;;;;;;22.90;11.63;;;2.70;99.90;;;;;;5111204;28;20458;-54
2020/12/01 10:42:11;;;;;;;22.63;12.17;;;2.90;99.90;;;;;;5111218;28;20445;-55
2020/12/01 10:44:38;;;;;;;23.10;12.20;;;2.90;99.90;;;;;;5111208;28;20445;-55
2020/12/01 10:47:04;;;;;;;23.83;11.63;;;3.00;99.90;;;;;;5111032;28;21060;-55
2020/12/01 10:49:31;;;;;;;19.17;10.47;;;3.10;99.90;;;;;;5112082;27;20529;-54
2020/12/01 10:51:57;;;;;;;26.10;11.20;;;3.10;99.90;;;;;;5111099;28;20441;-54
2020/12/01 10:54:24;;;;;;;21.17;11.70;;;3.00;99.90;;;;;;5110960;28;20437;-54
2020/12/01 10:56:51;;;;;;;22.73;11.23;;;3.00;99.90;;;;;;5110943;28;20440;-55
2020/12/01 10:59:19;;;;;;;22.03;11.90;;;3.00;99.90;;;;;;5110956;28;20976;-54
2020/12/01 11:01:45;;;;;;;21.80;12.07;;;3.00;99.90;;;;;;5112041;27;20954;-54
2020/12/01 11:04:12;;;;;;;24.80;11.90;;;2.90;99.90;;;;;;5110906;28;20990;-54
2020/12/01 11:06:39;;;;;;;22.13;11.50;;;2.90;99.90;;;;;;5110863;28;20484;-54
2020/12/01 11:09:07;;;;;;;23.30;12.23;;;3.00;99.90;;;;;;5112078;27;20858;-54
2020/12/01 11:11:33;;;;;;;24.63;13.23;;;3.10;99.90;;;;;;5131355;27;20455;-55
2020/12/01 11:14:01;;;;;;;25.17;14.13;;;3.10;99.90;;;;;;5131453;27;20473;-54
2020/12/01 11:16:29;;;;;;;24.30;13.83;;;3.20;99.90;;;;;;5131256;27;20444;-54
2020/12/01 11:18:55;;;;;;;23.63;12.97;;;3.30;99.90;;;;;;5131092;27;20535;-54
2020/12/01 11:21:22;;;;;;;23.93;13.13;;;3.50;99.90;;;;;;5131254;28;20436;-54
2020/12/01 11:23:48;;;;;;;23.00;12.30;;;3.50;99.90;;;;;;5128799;27;20452;-54
2020/12/01 11:26:20;;;;;;;23.40;13.90;;;3.50;99.90;;;;;;5131185;27;21107;-54
2020/12/01 11:28:47;;;;;;;27.60;14.87;;;3.50;99.90;;;;;;5130953;28;20558;-54
2020/12/01 11:31:13;;;;;;;26.57;14.30;;;3.50;99.90;;;;;;5131125;27;20496;-54
2020/12/01 11:33:41;;;;;;;25.63;14.50;;;3.50;99.90;;;;;;5131122;28;20504;-54
2020/12/01 11:36:07;;;;;;;25.00;14.50;;;3.40;99.90;;;;;;5130857;28;20485;-54
2020/12/01 11:38:34;;;;;;;24.83;13.63;;;3.50;99.90;;;;;;5131153;28;20516;-54
2020/12/01 11:41:00;;;;;;;23.80;13.77;;;3.50;99.90;;;;;;5112371;27;20456;-54
2020/12/01 11:43:27;;;;;;;27.13;14.03;;;3.50;99.90;;;;;;5110701;28;20502;-54
2020/12/01 11:45:53;;;;;;;25.00;14.10;;;3.60;99.90;;;;;;5110135;28;20484;-54
2020/12/01 11:48:19;;;;;;;22.30;13.50;;;3.50;99.90;;;;;;5110560;28;20465;-54
2020/12/01 11:50:47;;;;;;;21.53;12.40;;;3.50;99.90;;;;;;5110343;28;20510;-54
2020/12/01 11:53:13;;;;;;;22.73;13.20;;;3.60;99.90;;;;;;5110682;28;20491;-54
2020/12/01 11:55:40;;;;;;;19.07;11.50;;;3.70;99.90;;;;;;5111600;28;20452;-54
2020/12/01 11:58:06;;;;;;;20.87;11.80;;;3.80;99.90;;;;;;5114608;28;20893;-54
2020/12/01 12:00:33;;;;;;;18.10;11.77;;;3.80;99.90;;;;;;5130660;28;20440;-54
2020/12/01 12:03:00;;;;;;;18.97;11.97;;;3.80;99.90;;;;;;5131049;28;20475;-54
2020/12/01 12:05:26;;;;;;;20.13;12.00;;;3.80;99.90;;;;;;5130658;28;20480;-55
2020/12/01 12:07:54;;;;;;;20.63;11.50;;;3.80;99.90;;;;;;5128879;28;20448;-54
2020/12/01 12:10:20;;;;;;;20.97;11.33;;;3.50;99.90;;;;;;5126565;28;20466;-54
2020/12/01 12:12:48;;;;;;;20.70;12.47;;;3.60;99.90;;;;;;5109981;28;20506;-54
2020/12/01 12:15:14;;;;;;;19.53;12.37;;;3.60;99.90;;;;;;5110349;28;20580;-54
2020/12/01 12:17:41;;;;;;;27.23;13.53;;;3.60;99.90;;;;;;5110105;28;20652;-54
2020/12/01 12:20:07;;;;;;;18.47;11.10;;;3.60;99.90;;;;;;5109839;28;20926;-54
2020/12/01 12:22:34;;;;;;;23.70;12.10;;;3.50;99.90;;;;;;5110221;28;20453;-54
2020/12/01 12:25:02;;;;;;;25.93;12.97;;;3.40;99.90;;;;;;5110121;28;20887;-54
2020/12/01 12:27:29;;;;;;;31.63;17.03;;;3.50;99.90;;;;;;5114021;28;20447;-54
2020/12/01 12:29:55;;;;;;;33.97;16.43;;;3.10;99.90;;;;;;5130537;28;20543;-54
2020/12/01 12:32:22;;;;;;;19.53;11.10;;;3.20;99.90;;;;;;5130483;28;20454;-54
2020/12/01 12:34:49;;;;;;;26.73;14.50;;;3.20;99.90;;;;;;5130466;27;20868;-54
2020/12/01 12:37:15;;;;;;;22.77;13.27;;;3.30;99.90;;;;;;5126719;27;20441;-53
2020/12/01 12:39:42;;;;;;;20.93;12.20;;;3.40;99.90;;;;;;5117881;27;20522;-54
2020/12/01 12:42:09;;;;;;;21.20;10.63;;;3.50;99.90;;;;;;5113527;28;20492;-54
2020/12/01 12:44:36;;;;;;;22.50;12.43;;;3.40;99.90;;;;;;5118421;27;20524;-54
2020/12/01 12:47:02;;;;;;;25.33;12.73;;;3.50;99.90;;;;;;5113374;28;20553;-54
2020/12/01 12:49:29;;;;;;;25.73;13.20;;;3.30;99.90;;;;;;5114493;27;20506;-54
2020/12/01 12:51:55;;;;;;;30.23;13.10;;;3.20;99.90;;;;;;5133880;27;20440;-54
2020/12/01 12:54:22;;;;;;;25.63;12.40;;;3.20;99.90;;;;;;5134134;27;21117;-54
2020/12/01 12:56:48;;;;;;;20.40;12.10;;;3.30;99.90;;;;;;5134047;27;20440;-54
2020/12/01 12:59:16;;;;;;;28.43;12.63;;;3.30;99.90;;;;;;5132732;27;20528;-54
2020/12/01 13:01:43;;;;;;;24.27;11.40;;;3.30;99.90;;;;;;5133807;27;20428;-53
2020/12/01 13:04:09;;;;;;;18.30;11.00;;;3.30;99.90;;;;;;5133715;27;20567;-54
2020/12/01 13:06:36;;;;;;;19.73;11.20;;;3.50;99.90;;;;;;5133401;27;20992;-54
2020/12/01 13:09:02;;;;;;;20.37;11.97;;;3.30;99.90;;;;;;5133559;27;20456;-54
2020/12/01 13:11:29;;;;;;;20.43;10.87;;;3.30;99.90;;;;;;5131806;27;20452;-54
2020/12/01 13:13:57;;;;;;;16.53;10.47;;;3.30;99.90;;;;;;5133565;27;20444;-54
2020/12/01 13:16:24;;;;;;;21.80;10.50;;;3.30;99.90;;;;;;5133568;27;20438;-54
2020/12/01 13:18:51;;;;;;;17.17;9.90;;;3.20;99.90;;;;;;5127226;27;20460;-54